createdAt,value
2022-07-27T00:01:07.336Z,66940.69
2022-07-27T00:03:36.925Z,66940.69
2022-07-27T00:06:04.814Z,66940.69
2022-07-27T00:08:32.506Z,66940.69
2022-07-27T00:11:00.262Z,66940.69
2022-07-27T00:13:28.137Z,66940.69
2022-07-27T00:15:56.403Z,66940.69
2022-07-27T00:18:24.220Z,66940.69
2022-07-27T00:20:53.294Z,66940.69
2022-07-27T00:23:21.156Z,66940.69
2022-07-27T00:25:48.874Z,66940.69
2022-07-27T00:28:16.664Z,66940.69
2022-07-27T00:30:44.402Z,66940.69
2022-07-27T00:33:16.912Z,66940.69
2022-07-27T00:35:45.534Z,66940.69
2022-07-27T00:38:14.638Z,66940.69
2022-07-27T00:40:42.425Z,66940.69
2022-07-27T00:43:10.282Z,66940.69
2022-07-27T00:45:38.065Z,66940.69
2022-07-27T00:48:06.821Z,66940.69
2022-07-27T00:50:35.035Z,66940.69
2022-07-27T00:53:04.822Z,66940.69
2022-07-27T00:55:34.928Z,66940.69
2022-07-27T00:58:04.903Z,66940.69
2022-07-27T01:00:32.812Z,66940.69
2022-07-27T01:03:02.366Z,66940.69
2022-07-27T01:05:36.732Z,66940.69
2022-07-27T01:08:06.784Z,66940.69
2022-07-27T01:10:36.980Z,66940.69
2022-07-27T01:13:04.768Z,66940.69
2022-07-27T01:15:35.342Z,66940.69
2022-07-27T01:18:05.206Z,66940.69
2022-07-27T01:20:33.758Z,66940.69
2022-07-27T01:23:02.860Z,66940.69
2022-07-27T01:25:30.601Z,66940.69
2022-07-27T01:27:58.332Z,66940.69
2022-07-27T01:30:30.216Z,66940.69
2022-07-27T01:33:02.568Z,66940.69
2022-07-27T01:35:30.571Z,66940.69
2022-07-27T01:37:58.897Z,66940.69
2022-07-27T01:40:28.275Z,66940.69
2022-07-27T01:42:56.060Z,66940.69
2022-07-27T01:45:24.150Z,66940.69
2022-07-27T01:47:51.902Z,66940.69
2022-07-27T01:50:19.741Z,66940.69
2022-07-27T01:52:47.456Z,66940.69
2022-07-27T01:55:15.271Z,66940.69
2022-07-27T01:57:44.393Z,66940.69
2022-07-27T02:00:13.564Z,66940.69
2022-07-27T02:02:42.116Z,66940.69
2022-07-27T02:05:12.089Z,66940.69
2022-07-27T02:07:40.732Z,66940.69
2022-07-27T02:10:10.146Z,66940.69
2022-07-27T02:12:37.441Z,66940.69
2022-07-27T02:15:15.140Z,66940.69
2022-07-27T02:17:44.700Z,66940.69
2022-07-27T02:20:14.366Z,66940.69
2022-07-27T02:22:42.250Z,66940.69
2022-07-27T02:25:12.068Z,66940.69
2022-07-27T02:27:40.579Z,66940.69
2022-07-27T02:30:11.138Z,66940.69
2022-07-27T02:32:40.455Z,66940.69
2022-07-27T02:35:18.843Z,66940.69
2022-07-27T02:37:47.923Z,66940.69
2022-07-27T02:40:17.301Z,66940.69
2022-07-27T02:42:45.721Z,66940.69
2022-07-27T02:45:15.476Z,66940.69
2022-07-27T02:47:43.350Z,66940.69
2022-07-27T02:50:11.651Z,66940.69
2022-07-27T02:52:39.431Z,66940.69
2022-07-27T02:55:08.335Z,66940.69
2022-07-27T02:57:40.859Z,66940.69
2022-07-27T03:00:12.400Z,66940.69
2022-07-27T03:02:41.692Z,66940.69
2022-07-27T03:05:11.010Z,66940.69
2022-07-27T03:07:38.803Z,66940.69
2022-07-27T03:10:08.018Z,66940.69
2022-07-27T03:12:35.774Z,66940.69
2022-07-27T03:15:03.507Z,66940.69
2022-07-27T03:17:31.253Z,66940.69
2022-07-27T03:20:00.430Z,66940.69
2022-07-27T03:22:30.860Z,66940.69
2022-07-27T03:24:58.697Z,66940.69
2022-07-27T03:27:26.800Z,66940.69
2022-07-27T03:29:54.563Z,66940.69
2022-07-27T03:32:22.465Z,66940.69
2022-07-27T03:34:50.195Z,66940.69
2022-07-27T03:37:20.120Z,66940.69
2022-07-27T03:39:47.840Z,66940.69
2022-07-27T03:42:15.595Z,66940.69
2022-07-27T03:44:43.355Z,66940.69
2022-07-27T03:47:11.112Z,66940.69
2022-07-27T03:49:38.825Z,66940.69
2022-07-27T03:52:07.069Z,66940.69
2022-07-27T03:54:36.239Z,66940.69
2022-07-27T03:57:03.932Z,66940.69
2022-07-27T03:59:31.700Z,66940.69
2022-07-27T04:01:59.478Z,66940.69
2022-07-27T04:04:27.257Z,66940.69
2022-07-27T04:06:55.015Z,66940.69
2022-07-27T04:09:22.746Z,66940.69
2022-07-27T04:11:53.752Z,66940.69
2022-07-27T04:14:23.476Z,66940.69
2022-07-27T04:16:51.237Z,66940.69
2022-07-27T04:19:19.144Z,66940.69
2022-07-27T04:21:46.851Z,66940.69
2022-07-27T04:24:14.594Z,66940.69
2022-07-27T04:26:42.367Z,66940.69
2022-07-27T04:29:11.742Z,66940.69
2022-07-27T04:31:40.217Z,66940.69
2022-07-27T04:34:07.970Z,66940.69
2022-07-27T04:36:35.652Z,66940.69
2022-07-27T04:39:03.415Z,66940.69
2022-07-27T04:41:31.214Z,66940.69
2022-07-27T04:44:00.104Z,66940.69
2022-07-27T04:46:30.532Z,66940.69
2022-07-27T04:48:58.606Z,66940.69
2022-07-27T04:51:29.994Z,66940.69
2022-07-27T04:54:00.406Z,66940.69
2022-07-27T04:56:28.462Z,66940.69
2022-07-27T04:58:56.426Z,66940.69
2022-07-27T05:01:25.495Z,66940.69
2022-07-27T05:03:54.982Z,66940.69
2022-07-27T05:06:22.875Z,66940.69
2022-07-27T05:08:50.618Z,66940.69
2022-07-27T05:11:18.432Z,66940.69
2022-07-27T05:13:46.190Z,66940.69
2022-07-27T05:16:14.029Z,66940.69
2022-07-27T05:18:41.820Z,66940.69
2022-07-27T05:21:10.829Z,66940.69
2022-07-27T05:23:38.749Z,66940.69
2022-07-27T05:26:06.490Z,66940.69
2022-07-27T05:28:34.258Z,66940.69
2022-07-27T05:31:02.568Z,66940.69
2022-07-27T05:33:30.423Z,66940.69
2022-07-27T05:35:58.799Z,66940.69
2022-07-27T05:38:27.936Z,66940.69
2022-07-27T05:40:55.673Z,66940.69
2022-07-27T05:43:23.479Z,66940.69
2022-07-27T05:45:51.398Z,66940.69
2022-07-27T05:48:19.145Z,66940.69
2022-07-27T05:50:46.926Z,66940.69
2022-07-27T05:53:14.680Z,66940.69
2022-07-27T05:55:59.444Z,66940.69
2022-07-27T05:58:27.920Z,66940.69
2022-07-27T06:00:56.390Z,66940.69
2022-07-27T06:03:24.671Z,66940.69
2022-07-27T06:05:52.955Z,66940.69
2022-07-27T06:08:19.752Z,66940.69
2022-07-27T06:10:48.900Z,66940.69
2022-07-27T06:13:16.671Z,66940.69
2022-07-27T06:15:44.429Z,66940.69
2022-07-27T06:18:18.144Z,66940.69
2022-07-27T06:20:46.792Z,66940.69
2022-07-27T06:23:14.591Z,66940.69
2022-07-27T06:25:42.352Z,66940.69
2022-07-27T06:28:11.357Z,66940.69
2022-07-27T06:30:39.064Z,66940.69
2022-07-27T06:33:06.911Z,66940.69
2022-07-27T06:35:34.817Z,66940.69
2022-07-27T06:38:05.560Z,66940.69
2022-07-27T06:40:33.339Z,66940.69
2022-07-27T06:43:01.514Z,66940.69
2022-07-27T06:45:30.906Z,66940.69
2022-07-27T06:47:58.643Z,66940.69
2022-07-27T06:50:26.884Z,66940.69
2022-07-27T06:52:54.714Z,66940.69
2022-07-27T06:55:22.613Z,66940.69
2022-07-27T06:57:50.450Z,66940.69
2022-07-27T07:00:18.653Z,66940.69
2022-07-27T07:02:55.464Z,66940.69
2022-07-27T07:05:24.120Z,66940.69
2022-07-27T07:07:52.350Z,66940.69
2022-07-27T07:10:21.026Z,66940.69
2022-07-27T07:12:55.469Z,66940.69
2022-07-27T07:15:24.605Z,66940.69
2022-07-27T07:17:52.424Z,66940.69
2022-07-27T07:20:21.628Z,66940.69
2022-07-27T07:22:49.520Z,66940.69
2022-07-27T07:25:18.024Z,66940.69
2022-07-27T07:27:45.920Z,66940.69
2022-07-27T07:30:14.230Z,66940.69
2022-07-27T07:32:42.232Z,66940.69
2022-07-27T07:35:11.712Z,66940.69
2022-07-27T07:37:40.834Z,66940.69
2022-07-27T07:40:41.316Z,66940.69
2022-07-27T07:43:00.238Z,66940.69
2022-07-27T07:45:30.072Z,66940.69
2022-07-27T07:47:58.355Z,66940.69
2022-07-27T07:50:26.900Z,66940.69
2022-07-27T07:52:56.256Z,66940.69
2022-07-27T07:55:26.283Z,66940.69
2022-07-27T07:57:55.215Z,66940.69
2022-07-27T08:00:23.876Z,66940.69
2022-07-27T08:02:53.701Z,66940.69
2022-07-27T08:05:22.802Z,66940.69
2022-07-27T08:07:51.486Z,66940.69
2022-07-27T08:10:22.776Z,66940.69
2022-07-27T08:12:53.157Z,66940.69
2022-07-27T08:15:21.500Z,66940.69
2022-07-27T08:18:02.470Z,66940.69
2022-07-27T08:20:30.670Z,66940.69
2022-07-27T08:22:58.718Z,66940.69
2022-07-27T08:25:27.935Z,66940.69
2022-07-27T08:27:56.116Z,66940.69
2022-07-27T08:30:24.955Z,66940.69
2022-07-27T08:32:55.230Z,66940.69
2022-07-27T08:35:23.292Z,66940.69
2022-07-27T08:37:51.644Z,66940.69
2022-07-27T08:43:10.240Z,66940.69
2022-07-27T08:45:38.620Z,66940.69
2022-07-27T08:48:07.337Z,66940.69
2022-07-27T08:50:35.721Z,66940.69
2022-07-27T08:53:06.042Z,66940.69
2022-07-27T08:55:35.643Z,66940.69
2022-07-27T08:58:04.124Z,66940.69
2022-07-27T09:00:35.268Z,66940.69
2022-07-27T09:03:03.425Z,66940.69
2022-07-27T09:05:37.193Z,66940.69
2022-07-27T09:08:12.943Z,66940.69
2022-07-27T09:10:40.870Z,66940.69
2022-07-27T09:13:23.417Z,66940.69
2022-07-27T09:18:43.077Z,66940.69
2022-07-27T09:21:17.042Z,66940.69
2022-07-27T09:23:48.047Z,66940.69
2022-07-27T09:26:31.208Z,66940.69
2022-07-27T09:29:02.012Z,66940.69
2022-07-27T09:31:31.772Z,66940.69
2022-07-27T09:34:01.347Z,66940.69
2022-07-27T09:36:30.527Z,66940.69
2022-07-27T09:39:12.970Z,66940.69
2022-07-27T09:41:43.253Z,66940.69
2022-07-27T09:44:31.282Z,66940.69
2022-07-27T09:47:01.620Z,66940.69
2022-07-27T09:49:31.808Z,66940.69
2022-07-27T09:52:02.028Z,66940.69
2022-07-27T09:54:43.189Z,66940.69
2022-07-27T09:57:11.222Z,66940.69
2022-07-27T09:59:39.151Z,66940.69
2022-07-27T10:02:08.645Z,66940.69
2022-07-27T10:04:36.932Z,66940.69
2022-07-27T10:07:08.365Z,66940.69
2022-07-27T10:09:40.545Z,66940.69
2022-07-27T10:12:09.595Z,66940.69
2022-07-27T10:14:37.476Z,66940.69
2022-07-27T10:17:10.908Z,66940.69
2022-07-27T10:19:46.326Z,66940.69
2022-07-27T10:22:14.407Z,66940.69
2022-07-27T10:24:42.262Z,66940.69
2022-07-27T10:27:21.364Z,66940.69
2022-07-27T10:29:49.837Z,66940.69
2022-07-27T10:32:26.696Z,66940.69
2022-07-27T10:34:55.222Z,66940.69
2022-07-27T10:37:27.485Z,66940.69
2022-07-27T10:40:17.109Z,66940.69
2022-07-27T10:42:49.198Z,66940.69
2022-07-27T10:45:22.067Z,66940.69
2022-07-27T10:47:52.702Z,66940.69
2022-07-27T10:50:31.993Z,66940.69
2022-07-27T10:53:11.383Z,66940.69
2022-07-27T10:55:47.056Z,66940.69
2022-07-27T10:58:50.128Z,66940.69
2022-07-27T11:01:20.428Z,66940.69
2022-07-27T11:03:53.658Z,66940.69
2022-07-27T11:06:34.734Z,66940.69
2022-07-27T11:11:59.497Z,66940.69
2022-07-27T11:14:31.497Z,66940.69
2022-07-27T11:17:39.936Z,66940.69
2022-07-27T11:19:55.022Z,66940.69
2022-07-27T11:23:03.197Z,66940.69
2022-07-27T11:25:21.182Z,66940.69
2022-07-27T11:27:49.750Z,66940.69
2022-07-27T11:30:25.815Z,66940.69
2022-07-27T11:32:54.122Z,66940.69
2022-07-27T11:35:24.165Z,66940.69
2022-07-27T11:38:03.740Z,66940.69
2022-07-27T11:43:39.650Z,66940.69
2022-07-27T11:46:14.211Z,66940.69
2022-07-27T11:49:06.188Z,66940.69
2022-07-27T11:51:37.374Z,66940.69
2022-07-27T11:54:07.525Z,66940.69
2022-07-27T11:56:38.211Z,66940.69
2022-07-27T11:59:12.516Z,66940.69
2022-07-27T12:01:43.576Z,66940.69
2022-07-27T12:04:18.858Z,66940.69
2022-07-27T12:06:50.686Z,66940.69
2022-07-27T12:09:19.132Z,66940.69
2022-07-27T12:11:54.304Z,66940.69
2022-07-27T12:14:33.329Z,66940.69
2022-07-27T12:17:29.139Z,66940.69
2022-07-27T12:20:03.044Z,66940.69
2022-07-27T12:22:36.583Z,66940.69
2022-07-27T12:25:10.019Z,66940.69
2022-07-27T12:27:56.016Z,66940.69
2022-07-27T12:30:31.831Z,66940.69
2022-07-27T12:33:00.607Z,66940.69
2022-07-27T12:35:36.494Z,66940.69
2022-07-27T12:38:09.488Z,66940.69
2022-07-27T12:40:45.819Z,66940.69
2022-07-27T12:43:18.496Z,66940.69
2022-07-27T12:45:47.782Z,66940.69
2022-07-27T12:48:18.062Z,66940.69
2022-07-27T12:50:48.143Z,66940.69
2022-07-27T12:53:18.365Z,66940.69
2022-07-27T12:55:46.635Z,66940.69
2022-07-27T12:58:15.317Z,66940.69
2022-07-27T13:00:43.884Z,66940.69
2022-07-27T13:03:11.904Z,66940.69
2022-07-27T13:05:39.767Z,66940.69
2022-07-27T13:08:08.488Z,66940.69
2022-07-27T13:10:38.395Z,66940.69
2022-07-27T13:13:06.736Z,66940.69
2022-07-27T13:15:34.894Z,66940.69
2022-07-27T13:18:03.252Z,66940.69
2022-07-27T13:20:31.621Z,66940.69
2022-07-27T13:22:59.475Z,66940.69
2022-07-27T13:25:27.368Z,66940.69
2022-07-27T13:27:56.656Z,66940.69
2022-07-27T13:30:25.030Z,66940.69
2022-07-27T13:32:52.998Z,66940.69
2022-07-27T13:35:20.937Z,66940.69
2022-07-27T13:37:48.817Z,66940.69
2022-07-27T13:40:16.624Z,66940.69
2022-07-27T13:42:44.665Z,66940.69
2022-07-27T13:45:14.021Z,66940.69
2022-07-27T13:47:42.680Z,66940.69
2022-07-27T13:50:18.300Z,66940.69
2022-07-27T13:52:48.430Z,66940.69
2022-07-27T13:55:17.010Z,66940.69
2022-07-27T13:57:44.831Z,66940.69
2022-07-27T14:00:15.221Z,66940.69
2022-07-27T14:02:43.673Z,66940.69
2022-07-27T14:05:14.243Z,66940.69
2022-07-27T14:07:43.534Z,66940.69
2022-07-27T14:10:29.619Z,66940.69
2022-07-27T14:12:59.293Z,66940.69
2022-07-27T14:15:28.903Z,66940.69
2022-07-27T14:17:56.806Z,66940.69
2022-07-27T14:20:25.041Z,66940.69
2022-07-27T14:22:53.022Z,66940.69
2022-07-27T14:25:20.901Z,66940.69
2022-07-27T14:27:48.711Z,66940.69
2022-07-27T14:30:20.812Z,66940.69
2022-07-27T14:32:50.533Z,66940.69
2022-07-27T14:35:18.748Z,66940.69
2022-07-27T14:37:46.845Z,66940.69
2022-07-27T14:40:15.466Z,66940.69
2022-07-27T14:42:43.617Z,66940.69
2022-07-27T14:45:12.700Z,66940.69
2022-07-27T14:47:40.547Z,66940.69
2022-07-27T14:50:10.398Z,66940.69
2022-07-27T14:52:38.432Z,66940.69
2022-07-27T14:55:07.242Z,66940.69
2022-07-27T14:57:35.018Z,66940.69
2022-07-27T15:00:09.728Z,66940.69
2022-07-27T15:02:38.098Z,66940.69
2022-07-27T15:05:07.548Z,66940.69
2022-07-27T15:07:37.159Z,66940.69
2022-07-27T15:11:04.539Z,66940.69
2022-07-27T15:14:30.039Z,66940.69
2022-07-27T15:17:56.579Z,66940.69
2022-07-27T15:21:23.334Z,66940.69
2022-07-27T15:24:52.575Z,66940.69
2022-07-27T15:27:21.969Z,66940.69
2022-07-27T15:29:50.057Z,66940.69
2022-07-27T15:32:17.860Z,66940.69
2022-07-27T15:34:45.676Z,66940.69
2022-07-27T15:37:13.455Z,66940.69
2022-07-27T15:39:42.981Z,66940.69
2022-07-27T15:42:10.910Z,98036.84
2022-07-27T15:44:38.936Z,66940.69
2022-07-27T15:47:06.873Z,98033.25
2022-07-27T15:49:34.835Z,98031.03
2022-07-27T15:52:03.053Z,98032.22
2022-07-27T15:54:33.880Z,98026.25
2022-07-27T15:57:05.605Z,98023.91
2022-07-27T15:59:33.419Z,98025.88
2022-07-27T16:02:01.991Z,66940.69
2022-07-27T16:04:29.956Z,66940.69
2022-07-27T16:06:57.800Z,66940.69
2022-07-27T16:09:25.681Z,66940.69
2022-07-27T16:11:53.484Z,66940.69
2022-07-27T16:14:22.694Z,66940.69
2022-07-27T16:16:51.782Z,66940.69
2022-07-27T16:19:20.011Z,66940.69
2022-07-27T16:21:54.410Z,66940.69
2022-07-27T16:24:23.747Z,66940.69
2022-07-27T16:26:51.579Z,66940.69
2022-07-27T16:29:19.524Z,66940.69
2022-07-27T16:31:48.827Z,66940.69
2022-07-27T16:34:16.800Z,66940.69
2022-07-27T16:36:44.942Z,66940.69
2022-07-27T16:39:13.116Z,66940.69
2022-07-27T16:41:41.575Z,66940.69
2022-07-27T16:44:09.514Z,66940.69
2022-07-27T16:46:37.530Z,66940.69
2022-07-27T16:49:07.179Z,66940.69
2022-07-27T16:51:35.433Z,66940.69
2022-07-27T16:54:03.560Z,66940.69
2022-07-27T16:56:32.266Z,66940.69
2022-07-27T16:59:00.034Z,66940.69
2022-07-27T17:01:28.960Z,66940.69
2022-07-27T17:03:57.421Z,66940.69
2022-07-27T17:06:27.558Z,66940.69
2022-07-27T17:08:56.318Z,66940.69
2022-07-27T17:11:24.851Z,66940.69
2022-07-27T17:13:59.081Z,66940.69
2022-07-27T17:16:28.200Z,66940.69
2022-07-27T17:18:57.991Z,66940.69
2022-07-27T17:21:27.293Z,66940.69
2022-07-27T17:23:55.294Z,66940.69
2022-07-27T17:26:24.618Z,66940.69
2022-07-27T17:28:53.424Z,66940.69
2022-07-27T17:31:22.142Z,66940.69
2022-07-27T17:33:50.650Z,66940.69
2022-07-27T17:36:18.606Z,66940.69
2022-07-27T17:38:49.468Z,66940.69
2022-07-27T17:41:23.742Z,66940.69
2022-07-27T17:43:52.786Z,66940.69
2022-07-27T17:46:21.074Z,66940.69
2022-07-27T17:48:49.196Z,66940.69
2022-07-27T17:51:17.406Z,66940.69
2022-07-27T17:53:45.464Z,66940.69
2022-07-27T17:56:14.679Z,66940.69
2022-07-27T17:58:43.318Z,66940.69
2022-07-27T18:01:11.426Z,66940.69
2022-07-27T18:03:40.249Z,66940.69
2022-07-27T18:06:08.512Z,66940.69
2022-07-27T18:08:37.140Z,66940.69
2022-07-27T18:11:05.423Z,66940.69
2022-07-27T18:13:38.895Z,66940.69
2022-07-27T18:16:09.186Z,66940.69
2022-07-27T18:18:37.469Z,66940.69
2022-07-27T18:21:06.277Z,66940.69
2022-07-27T18:23:36.225Z,66940.69
2022-07-27T18:26:06.483Z,66940.69
2022-07-27T18:28:39.747Z,66940.69
2022-07-27T18:31:10.046Z,66940.69
2022-07-27T18:33:40.416Z,66940.69
2022-07-27T18:36:09.050Z,66940.69
2022-07-27T18:38:37.970Z,66940.69
2022-07-27T18:41:06.800Z,66940.69
2022-07-27T18:43:36.177Z,66940.69
2022-07-27T18:46:04.983Z,66940.69
2022-07-27T18:48:33.266Z,66940.69
2022-07-27T18:51:01.281Z,66940.69
2022-07-27T18:53:29.129Z,66940.69
2022-07-27T18:55:57.201Z,66940.69
2022-07-27T18:58:25.821Z,66940.69
2022-07-27T19:00:55.706Z,66940.69
2022-07-27T19:03:24.718Z,66940.69
2022-07-27T19:05:56.079Z,66940.69
2022-07-27T19:08:25.106Z,66940.69
2022-07-27T19:10:53.200Z,66940.69
2022-07-27T19:13:22.207Z,66940.69
2022-07-27T19:15:50.234Z,66940.69
2022-07-27T19:18:19.731Z,66940.69
2022-07-27T19:20:48.200Z,66940.69
2022-07-27T19:23:16.536Z,66940.69
2022-07-27T19:25:45.420Z,66940.69
2022-07-27T19:28:17.106Z,66940.69
2022-07-27T19:30:45.407Z,66940.69
2022-07-27T19:33:14.032Z,66940.69
2022-07-27T19:35:43.786Z,66940.69
2022-07-27T19:38:13.245Z,66940.69
2022-07-27T19:40:45.055Z,66940.69
2022-07-27T19:43:14.931Z,66940.69
2022-07-27T19:45:43.794Z,66940.69
2022-07-27T19:48:12.717Z,66940.69
2022-07-27T19:50:41.762Z,66940.69
2022-07-27T19:53:11.915Z,66940.69
2022-07-27T19:55:40.204Z,66940.69
2022-07-27T19:58:08.507Z,66940.69
2022-07-27T20:00:37.153Z,66940.69
2022-07-27T20:03:07.710Z,66940.69
2022-07-27T20:05:36.412Z,66940.69
2022-07-27T20:08:04.544Z,66940.69
2022-07-27T20:10:34.061Z,66940.69
2022-07-27T20:13:02.968Z,66940.69
2022-07-27T20:15:33.230Z,66940.69
2022-07-27T20:18:01.541Z,66940.69
2022-07-27T20:20:29.865Z,66940.69
2022-07-27T20:22:58.570Z,66940.69
2022-07-27T20:25:26.796Z,66940.69
2022-07-27T20:28:01.353Z,66940.69
2022-07-27T20:30:29.618Z,66940.69
2022-07-27T20:32:57.654Z,66940.69
2022-07-27T20:35:35.230Z,66940.69
2022-07-27T20:38:05.826Z,66940.69
2022-07-27T20:40:33.779Z,66940.69
2022-07-27T20:43:03.167Z,66940.69
2022-07-27T20:45:31.484Z,66940.69
2022-07-27T20:47:59.619Z,66940.69
2022-07-27T20:50:27.778Z,66940.69
2022-07-27T20:52:55.924Z,66940.69
2022-07-27T20:55:23.895Z,66940.69
2022-07-27T20:57:52.209Z,66940.69
2022-07-27T21:00:23.614Z,66940.69
2022-07-27T21:02:53.144Z,66940.69
2022-07-27T21:05:26.651Z,66940.69
2022-07-27T21:07:55.246Z,66940.69
2022-07-27T21:10:24.082Z,66940.69
2022-07-27T21:12:52.271Z,66940.69
2022-07-27T21:15:21.628Z,66940.69
2022-07-27T21:17:49.738Z,66940.69
2022-07-27T21:20:18.383Z,66940.69
2022-07-27T21:23:06.844Z,66940.69
2022-07-27T21:25:33.920Z,66940.69
2022-07-27T21:28:01.830Z,66940.69
2022-07-27T21:30:32.013Z,66940.69
2022-07-27T21:33:00.269Z,66940.69
2022-07-27T21:35:28.506Z,66940.69
2022-07-27T21:37:56.677Z,66940.69
2022-07-27T21:40:24.837Z,66940.69
2022-07-27T21:42:53.221Z,66940.69
2022-07-27T21:45:21.339Z,66940.69
2022-07-27T21:47:50.857Z,66940.69
2022-07-27T21:50:19.065Z,66940.69
2022-07-27T21:52:47.048Z,66940.69
2022-07-27T21:55:19.618Z,66940.69
2022-07-27T21:57:51.419Z,66940.69
2022-07-27T22:00:23.977Z,66940.69
2022-07-27T22:02:54.789Z,66940.69
2022-07-27T22:05:23.101Z,66940.69
2022-07-27T22:07:51.334Z,66940.69
2022-07-27T22:10:20.085Z,66940.69
2022-07-27T22:12:48.169Z,66940.69
2022-07-27T22:15:16.105Z,66940.69
2022-07-27T22:17:50.271Z,66940.69
2022-07-27T22:20:21.610Z,66940.69
2022-07-27T22:22:49.880Z,66940.69
2022-07-27T22:25:18.351Z,66940.69
2022-07-27T22:27:46.589Z,66940.69
2022-07-27T22:30:15.313Z,66940.69
2022-07-27T22:32:43.196Z,66940.69
2022-07-27T22:35:11.162Z,66940.69
2022-07-27T22:37:40.307Z,66940.69
2022-07-27T22:40:09.565Z,66940.69
2022-07-27T22:42:37.486Z,66940.69
2022-07-27T22:45:06.472Z,66940.69
2022-07-27T22:47:34.444Z,66940.69
2022-07-27T22:50:02.380Z,66940.69
2022-07-27T22:52:30.217Z,66940.69
2022-07-27T22:54:59.449Z,66940.69
2022-07-27T22:57:39.202Z,66940.69
2022-07-27T23:00:18.542Z,66940.69
2022-07-27T23:02:59.379Z,66940.69
2022-07-27T23:05:29.985Z,66940.69
2022-07-27T23:07:58.185Z,66940.69
2022-07-27T23:10:46.843Z,66940.69
2022-07-27T23:13:16.112Z,66940.69
2022-07-27T23:15:45.817Z,66940.69
2022-07-27T23:18:14.773Z,66940.69
2022-07-27T23:20:43.202Z,66940.69
2022-07-27T23:23:17.613Z,66940.69
2022-07-27T23:26:09.333Z,66940.69
2022-07-27T23:29:09.562Z,66940.69
2022-07-27T23:32:18.889Z,66940.69
2022-07-27T23:35:45.164Z,66940.69
2022-07-27T23:39:11.399Z,66940.69
2022-07-27T23:42:39.015Z,66940.69
2022-07-27T23:46:05.971Z,66940.69
2022-07-27T23:49:24.192Z,66940.69
2022-07-27T23:52:50.598Z,66940.69
2022-07-27T23:56:17.080Z,66940.69
2022-07-27T23:59:44.792Z,66940.69
